createdAt,value
2018-02-09T00:00:08.940Z,88.10
2018-02-09T00:02:42.823Z,88.00
2018-02-09T00:05:17.574Z,88.40
2018-02-09T00:07:51.621Z,88.40
2018-02-09T00:10:27.422Z,88.90
2018-02-09T00:13:01.289Z,88.80
2018-02-09T00:15:35.373Z,87.90
2018-02-09T00:18:09.212Z,88.10
2018-02-09T00:20:43.624Z,88.60
2018-02-09T00:23:17.592Z,88.60
2018-02-09T00:25:51.737Z,87.70
2018-02-09T00:28:26.319Z,88.60
2018-02-09T00:30:59.963Z,88.60
2018-02-09T00:33:34.463Z,89.30
2018-02-09T00:36:09.510Z,89.30
2018-02-09T00:38:43.309Z,89.20
2018-02-09T00:41:17.694Z,89.20
2018-02-09T00:43:52.152Z,89.00
2018-02-09T00:46:25.872Z,89.00
2018-02-09T00:49:00.167Z,89.00
2018-02-09T00:51:34.350Z,88.10
2018-02-09T00:54:08.197Z,88.10
2018-02-09T00:56:42.722Z,88.10
2018-02-09T00:59:16.740Z,88.10
2018-02-09T01:01:50.740Z,88.50
2018-02-09T01:04:24.449Z,88.10
2018-02-09T01:06:59.280Z,88.80
2018-02-09T01:09:34.286Z,89.10
2018-02-09T01:12:08.059Z,89.80
2018-02-09T01:14:42.751Z,88.20
2018-02-09T01:17:17.161Z,88.10
2018-02-09T01:19:52.190Z,88.30
2018-02-09T01:22:27.132Z,87.50
2018-02-09T01:25:01.775Z,87.20
2018-02-09T01:27:37.344Z,87.60
2018-02-09T01:30:11.083Z,87.60
2018-02-09T01:32:45.197Z,87.50
2018-02-09T01:35:19.510Z,87.10
2018-02-09T01:37:53.445Z,87.20
2018-02-09T01:40:27.983Z,88.10
2018-02-09T01:43:01.957Z,88.10
2018-02-09T01:45:36.857Z,88.20
2018-02-09T01:48:11.504Z,88.10
2018-02-09T01:50:45.908Z,88.10
2018-02-09T01:53:21.059Z,87.90
2018-02-09T01:55:54.957Z,87.90
2018-02-09T01:58:29.965Z,88.00
2018-02-09T02:01:03.829Z,88.00
2018-02-09T02:03:39.000Z,88.00
2018-02-09T02:06:12.868Z,88.00
2018-02-09T02:08:47.064Z,87.70
2018-02-09T02:11:21.930Z,87.80
2018-02-09T02:13:55.975Z,87.70
2018-02-09T02:16:29.922Z,87.30
2018-02-09T02:19:05.169Z,87.60
2018-02-09T02:21:40.087Z,87.60
2018-02-09T02:24:13.910Z,87.60
2018-02-09T02:26:47.770Z,87.50
2018-02-09T02:29:21.697Z,87.40
2018-02-09T02:31:55.954Z,87.50
2018-02-09T02:34:30.638Z,86.60
2018-02-09T02:37:04.867Z,86.60
2018-02-09T02:39:39.135Z,85.80
2018-02-09T02:42:13.091Z,86.30
2018-02-09T02:44:47.295Z,86.40
2018-02-09T02:47:25.434Z,87.70
2018-02-09T02:49:59.577Z,87.80
2018-02-09T02:52:33.316Z,88.40
2018-02-09T02:55:07.004Z,88.80
2018-02-09T02:57:41.123Z,88.80
2018-02-09T03:00:15.995Z,87.40
2018-02-09T03:02:50.594Z,87.40
2018-02-09T03:05:25.091Z,87.40
2018-02-09T03:08:00.011Z,87.30
2018-02-09T03:10:34.982Z,87.40
2018-02-09T03:13:09.696Z,87.60
2018-02-09T03:15:44.212Z,87.50
2018-02-09T03:18:18.544Z,87.80
2018-02-09T03:20:52.737Z,87.90
2018-02-09T03:23:26.798Z,87.60
2018-02-09T03:26:00.447Z,87.80
2018-02-09T03:28:34.543Z,87.60
2018-02-09T03:31:08.211Z,87.10
2018-02-09T03:33:41.770Z,87.00
2018-02-09T03:36:16.580Z,87.60
2018-02-09T03:38:50.726Z,87.60
2018-02-09T03:41:24.611Z,86.70
2018-02-09T03:43:59.436Z,87.70
2018-02-09T03:46:33.376Z,87.70
2018-02-09T03:49:07.349Z,87.80
2018-02-09T03:51:41.382Z,87.60
2018-02-09T03:54:15.327Z,87.60
2018-02-09T03:56:49.364Z,86.70
2018-02-09T03:59:24.079Z,86.60
2018-02-09T04:01:59.465Z,86.90
2018-02-09T04:04:33.259Z,87.50
2018-02-09T04:07:07.938Z,86.90
2018-02-09T04:09:42.628Z,87.40
2018-02-09T04:12:16.843Z,87.20
2018-02-09T04:14:50.525Z,87.80
2018-02-09T04:17:25.134Z,88.30
2018-02-09T04:19:58.698Z,88.30
2018-02-09T04:22:33.374Z,88.00
2018-02-09T04:25:08.100Z,87.40
2018-02-09T04:27:41.823Z,87.40
2018-02-09T04:30:16.029Z,88.00
2018-02-09T04:32:49.913Z,87.70
2018-02-09T04:35:24.938Z,87.20
2018-02-09T04:37:58.855Z,87.20
2018-02-09T04:40:32.327Z,87.30
2018-02-09T04:43:06.838Z,86.80
2018-02-09T04:45:41.730Z,87.30
2018-02-09T04:48:16.526Z,88.20
2018-02-09T04:50:50.559Z,88.20
2018-02-09T04:53:24.640Z,87.40
2018-02-09T04:55:58.763Z,87.30
2018-02-09T04:58:32.759Z,86.70
2018-02-09T05:01:07.080Z,86.60
2018-02-09T05:03:41.331Z,86.90
2018-02-09T05:06:15.739Z,87.50
2018-02-09T05:08:50.152Z,88.10
2018-02-09T05:11:24.363Z,88.10
2018-02-09T05:13:58.576Z,88.30
2018-02-09T05:16:33.380Z,87.60
2018-02-09T05:19:08.186Z,86.70
2018-02-09T05:21:42.306Z,86.70
2018-02-09T05:24:16.019Z,86.80
2018-02-09T05:26:49.941Z,87.30
2018-02-09T05:29:24.749Z,86.90
2018-02-09T05:31:59.306Z,87.50
2018-02-09T05:34:34.226Z,87.80
2018-02-09T05:37:07.943Z,87.70
2018-02-09T05:39:42.240Z,86.90
2018-02-09T05:42:16.361Z,86.70
2018-02-09T05:44:50.978Z,87.50
2018-02-09T05:47:25.766Z,87.30
2018-02-09T05:49:59.541Z,87.30
2018-02-09T05:52:33.662Z,88.00
2018-02-09T05:55:08.246Z,87.80
2018-02-09T05:57:42.142Z,88.00
2018-02-09T06:00:15.791Z,87.70
2018-02-09T06:02:49.691Z,88.00
2018-02-09T06:05:24.376Z,88.20
2018-02-09T06:07:58.237Z,88.20
2018-02-09T06:10:32.899Z,87.20
2018-02-09T06:13:06.968Z,87.10
2018-02-09T06:15:41.530Z,86.40
2018-02-09T06:18:15.060Z,86.30
2018-02-09T06:20:49.150Z,86.40
2018-02-09T06:23:23.107Z,86.70
2018-02-09T06:25:57.380Z,87.50
2018-02-09T06:28:31.905Z,88.10
2018-02-09T06:31:06.448Z,87.70
2018-02-09T06:33:41.795Z,87.70
2018-02-09T06:36:16.982Z,87.90
2018-02-09T06:38:51.504Z,87.90
2018-02-09T06:41:25.281Z,87.90
2018-02-09T06:43:58.977Z,88.00
2018-02-09T06:46:32.603Z,88.00
2018-02-09T06:49:06.121Z,88.30
2018-02-09T06:51:39.815Z,88.50
2018-02-09T06:54:14.209Z,88.50
2018-02-09T06:56:48.921Z,88.90
2018-02-09T06:59:23.391Z,89.10
2018-02-09T07:01:57.843Z,89.10
2018-02-09T07:04:32.314Z,88.90
2018-02-09T07:07:13.243Z,88.80
2018-02-09T07:09:47.759Z,88.30
2018-02-09T07:12:21.743Z,88.40
2018-02-09T07:14:56.469Z,88.10
2018-02-09T07:17:30.188Z,88.10
2018-02-09T07:20:04.035Z,88.40
2018-02-09T07:22:38.312Z,88.50
2018-02-09T07:25:12.814Z,87.00
2018-02-09T07:27:47.705Z,87.80
2018-02-09T07:30:22.899Z,88.50
2018-02-09T07:32:56.591Z,88.50
2018-02-09T07:35:30.214Z,87.90
2018-02-09T07:51:12.613Z,85.40
2018-02-09T07:53:47.122Z,84.80
2018-02-09T07:56:21.315Z,84.80
2018-02-09T07:58:56.097Z,84.40
2018-02-09T08:01:29.638Z,84.30
2018-02-09T08:04:04.163Z,84.20
2018-02-09T08:06:37.984Z,84.20
2018-02-09T08:09:11.994Z,84.60
2018-02-09T08:11:46.104Z,82.90
2018-02-09T08:14:19.668Z,81.70
2018-02-09T08:16:54.308Z,79.80
2018-02-09T08:19:28.136Z,79.80
2018-02-09T08:22:02.023Z,79.80
2018-02-09T08:24:35.634Z,79.90
2018-02-09T08:27:10.172Z,78.70
2018-02-09T08:29:45.206Z,79.10
2018-02-09T08:32:18.904Z,79.00
2018-02-09T08:34:52.736Z,79.10
2018-02-09T08:37:27.429Z,78.90
2018-02-09T08:40:01.098Z,78.90
2018-02-09T08:42:35.559Z,79.10
2018-02-09T08:45:09.603Z,79.10
2018-02-09T08:47:43.777Z,79.10
2018-02-09T08:50:17.997Z,79.40
2018-02-09T08:52:52.183Z,79.40
2018-02-09T08:55:25.893Z,77.60
2018-02-09T08:57:59.646Z,79.00
2018-02-09T09:00:33.375Z,78.50
2018-02-09T09:03:08.067Z,77.90
2018-02-09T09:05:41.732Z,77.90
2018-02-09T09:08:15.348Z,77.70
2018-02-09T09:10:49.663Z,78.60
2018-02-09T09:13:23.278Z,78.30
2018-02-09T09:15:57.835Z,77.90
2018-02-09T09:18:32.513Z,77.10
2018-02-09T09:21:06.486Z,77.10
2018-02-09T09:23:40.939Z,77.10
2018-02-09T09:26:15.637Z,76.30
2018-02-09T09:28:49.614Z,76.70
2018-02-09T09:31:23.425Z,77.20
2018-02-09T09:33:57.276Z,76.60
2018-02-09T09:36:31.899Z,77.70
2018-02-09T09:39:07.128Z,78.10
2018-02-09T09:41:41.660Z,77.60
2018-02-09T09:44:15.210Z,77.60
2018-02-09T09:46:49.687Z,77.00
2018-02-09T09:49:23.306Z,77.00
2018-02-09T09:51:56.875Z,76.90
2018-02-09T09:54:30.438Z,75.40
2018-02-09T09:57:04.159Z,76.10
2018-02-09T09:59:37.935Z,76.40
2018-02-09T10:02:23.879Z,76.00
2018-02-09T10:04:57.757Z,77.00
2018-02-09T10:07:32.371Z,75.10
2018-02-09T10:10:06.852Z,75.90
2018-02-09T10:12:40.523Z,75.90
2018-02-09T10:15:15.099Z,75.50
2018-02-09T10:17:49.551Z,75.40
2018-02-09T10:20:24.146Z,73.10
2018-02-09T10:22:57.916Z,73.10
2018-02-09T10:25:31.589Z,72.80
2018-02-09T10:28:05.247Z,74.20
2018-02-09T10:30:38.746Z,74.00
2018-02-09T10:33:12.275Z,73.20
2018-02-09T10:35:45.901Z,73.30
2018-02-09T10:38:20.563Z,73.70
2018-02-09T10:40:54.094Z,73.70
2018-02-09T10:43:27.710Z,74.20
2018-02-09T10:46:01.980Z,73.30
2018-02-09T10:48:35.534Z,73.30
2018-02-09T10:51:09.407Z,73.50
2018-02-09T10:53:44.008Z,72.80
2018-02-09T10:56:17.618Z,73.00
2018-02-09T10:58:51.235Z,73.60
2018-02-09T11:01:31.309Z,73.30
2018-02-09T11:04:04.906Z,73.30
2018-02-09T11:06:39.403Z,74.00
2018-02-09T11:09:14.154Z,74.00
2018-02-09T11:11:48.663Z,73.20
2018-02-09T11:14:22.319Z,73.20
2018-02-09T11:16:55.879Z,72.40
2018-02-09T11:19:30.387Z,72.70
2018-02-09T11:22:04.889Z,71.80
2018-02-09T11:24:38.904Z,71.90
2018-02-09T11:40:14.995Z,72.70
2018-02-09T11:42:48.683Z,72.20
2018-02-09T11:45:22.390Z,70.70
2018-02-09T11:47:56.055Z,70.90
2018-02-09T11:50:29.663Z,70.30
2018-02-09T11:53:04.117Z,69.30
2018-02-09T11:55:37.779Z,69.20
2018-02-09T11:58:11.492Z,69.80
2018-02-09T12:00:46.869Z,68.50
2018-02-09T12:03:21.879Z,67.60
2018-02-09T12:05:56.494Z,67.90
2018-02-09T12:08:30.355Z,67.90
2018-02-09T12:11:04.857Z,66.50
2018-02-09T12:13:38.652Z,66.50
2018-02-09T12:16:12.740Z,65.40
2018-02-09T12:18:46.371Z,64.70
2018-02-09T12:21:20.831Z,67.60
2018-02-09T12:23:54.473Z,67.60
2018-02-09T12:39:31.684Z,66.90
2018-02-09T12:42:06.359Z,65.50
2018-02-09T12:44:43.922Z,64.80
2018-02-09T12:47:17.619Z,64.80
2018-02-09T12:49:52.149Z,64.90
2018-02-09T12:52:25.895Z,64.90
2018-02-09T12:54:59.840Z,66.40
2018-02-09T12:57:34.615Z,65.50
2018-02-09T13:00:09.199Z,65.40
2018-02-09T13:02:43.015Z,65.10
2018-02-09T13:05:16.810Z,64.80
2018-02-09T13:07:51.080Z,65.40
2018-02-09T13:10:24.795Z,65.40
2018-02-09T13:13:10.438Z,66.10
2018-02-09T13:15:45.249Z,67.10
2018-02-09T13:18:31.923Z,66.10
2018-02-09T13:21:06.196Z,66.10
2018-02-09T13:23:52.415Z,65.70
2018-02-09T13:26:27.120Z,66.00
2018-02-09T13:29:00.849Z,66.00
2018-02-09T13:31:35.518Z,66.10
2018-02-09T13:34:10.083Z,67.20
2018-02-09T13:50:26.892Z,66.80
2018-02-09T13:53:01.861Z,66.90
2018-02-09T13:55:35.815Z,66.90
2018-02-09T13:58:11.212Z,65.60
2018-02-09T14:00:45.504Z,65.10
2018-02-09T14:03:19.095Z,65.00
2018-02-09T14:05:52.730Z,66.80
2018-02-09T14:08:26.379Z,66.10
2018-02-09T14:11:00.804Z,65.50
2018-02-09T14:13:34.602Z,65.50
2018-02-09T14:16:08.295Z,65.40
2018-02-09T14:18:42.704Z,65.90
2018-02-09T14:21:17.149Z,65.60
2018-02-09T14:23:51.580Z,66.70
2018-02-09T14:26:29.875Z,66.70
2018-02-09T14:29:03.659Z,67.00
2018-02-09T14:31:37.166Z,66.50
2018-02-09T14:34:10.766Z,67.90
2018-02-09T14:36:44.418Z,67.30
2018-02-09T14:39:18.034Z,68.30
2018-02-09T14:41:51.631Z,67.60
2018-02-09T14:44:25.928Z,68.70
2018-02-09T14:46:59.426Z,68.50
2018-02-09T14:49:32.956Z,69.50
2018-02-09T14:52:06.543Z,69.90
2018-02-09T14:54:41.351Z,69.20
2018-02-09T14:57:15.502Z,69.20
2018-02-09T14:59:49.356Z,69.80
2018-02-09T15:02:22.874Z,69.70
2018-02-09T15:04:57.428Z,70.50
2018-02-09T15:20:30.195Z,71.40
2018-02-09T15:23:04.747Z,71.10
2018-02-09T15:25:38.379Z,71.00
2018-02-09T15:28:13.696Z,71.40
2018-02-09T15:30:47.279Z,71.30
2018-02-09T15:33:21.119Z,71.30
2018-02-09T15:35:55.773Z,72.60
2018-02-09T15:38:29.684Z,72.70
2018-02-09T15:41:03.235Z,71.70
2018-02-09T15:43:37.590Z,71.70
2018-02-09T15:46:11.432Z,71.60
2018-02-09T15:48:45.350Z,71.50
2018-02-09T15:51:19.047Z,71.40
2018-02-09T15:53:53.439Z,74.00
2018-02-09T15:56:27.829Z,74.00
2018-02-09T15:59:16.209Z,73.50
2018-02-09T16:01:50.682Z,73.40
2018-02-09T16:04:29.087Z,73.30
2018-02-09T16:07:02.837Z,73.30
2018-02-09T16:09:37.469Z,73.30
2018-02-09T16:12:11.394Z,73.30
2018-02-09T16:14:46.014Z,73.70
2018-02-09T16:17:19.824Z,73.70
2018-02-09T16:19:53.484Z,74.40
2018-02-09T16:22:28.141Z,74.70
2018-02-09T16:25:02.569Z,74.30
2018-02-09T16:27:37.402Z,74.10
2018-02-09T16:30:11.031Z,74.10
2018-02-09T16:32:44.792Z,74.20
2018-02-09T16:35:18.491Z,74.40
2018-02-09T16:37:52.314Z,75.00
2018-02-09T16:40:26.566Z,75.70
2018-02-09T16:43:00.890Z,75.70
2018-02-09T16:45:34.547Z,75.70
2018-02-09T16:48:09.445Z,75.00
2018-02-09T16:50:44.106Z,74.70
2018-02-09T16:53:18.486Z,74.70
2018-02-09T16:55:52.171Z,74.60
2018-02-09T16:58:25.986Z,75.30
2018-02-09T17:00:59.817Z,75.70
2018-02-09T17:03:34.558Z,75.80
2018-02-09T17:06:08.784Z,75.80
2018-02-09T17:08:43.727Z,76.50
2018-02-09T17:11:17.688Z,76.40
2018-02-09T17:13:51.244Z,76.30
2018-02-09T17:16:24.798Z,76.70
2018-02-09T17:18:58.451Z,76.70
2018-02-09T17:21:33.099Z,76.60
2018-02-09T17:24:07.072Z,76.60
2018-02-09T17:26:41.551Z,76.10
2018-02-09T17:29:15.436Z,76.10
2018-02-09T17:31:49.839Z,75.70
2018-02-09T17:34:23.787Z,75.70
2018-02-09T17:36:57.751Z,76.00
2018-02-09T17:39:31.601Z,76.30
2018-02-09T17:42:06.240Z,77.40
2018-02-09T17:44:40.823Z,78.60
2018-02-09T17:47:15.246Z,78.40
2018-02-09T17:49:51.240Z,78.40
2018-02-09T17:52:25.004Z,77.90
2018-02-09T17:54:58.624Z,78.50
2018-02-09T17:57:33.132Z,78.10
2018-02-09T18:00:07.729Z,78.60
2018-02-09T18:02:41.704Z,78.60
2018-02-09T18:05:15.669Z,78.80
2018-02-09T18:07:49.681Z,79.10
2018-02-09T18:10:23.620Z,78.60
2018-02-09T18:12:57.398Z,78.90
2018-02-09T18:15:30.981Z,78.10
2018-02-09T18:18:04.602Z,78.50
2018-02-09T18:20:39.000Z,78.90
2018-02-09T18:23:12.730Z,78.90
2018-02-09T18:25:47.355Z,78.50
2018-02-09T18:28:21.963Z,78.50
2018-02-09T18:30:56.091Z,79.30
2018-02-09T18:33:31.015Z,80.60
2018-02-09T18:36:09.469Z,80.70
2018-02-09T18:38:44.175Z,80.00
2018-02-09T18:41:18.653Z,80.00
2018-02-09T18:43:58.815Z,78.70
2018-02-09T18:46:34.751Z,78.50
2018-02-09T18:49:09.440Z,80.30
2018-02-09T18:51:43.843Z,79.40
2018-02-09T18:54:17.487Z,79.30
2018-02-09T18:56:51.206Z,79.40
2018-02-09T18:59:25.668Z,80.10
2018-02-09T19:01:59.282Z,80.00
2018-02-09T19:04:33.681Z,80.70
2018-02-09T19:07:07.486Z,80.70
2018-02-09T19:09:42.061Z,79.70
2018-02-09T19:12:15.987Z,79.70
2018-02-09T19:14:50.612Z,80.40
2018-02-09T19:17:24.319Z,80.40
2018-02-09T19:19:59.130Z,79.00
2018-02-09T19:22:33.258Z,79.00
2018-02-09T19:25:06.875Z,80.00
2018-02-09T19:27:40.523Z,80.10
2018-02-09T19:30:14.644Z,80.40
2018-02-09T19:32:48.330Z,80.50
2018-02-09T19:35:22.383Z,80.30
2018-02-09T19:37:56.206Z,81.10
2018-02-09T19:40:30.743Z,80.60
2018-02-09T19:43:04.830Z,80.60
2018-02-09T19:45:38.560Z,80.40
2018-02-09T19:48:12.348Z,80.40
2018-02-09T19:50:46.228Z,80.10
2018-02-09T19:53:20.488Z,81.70
2018-02-09T19:55:53.996Z,81.60
2018-02-09T19:58:27.846Z,80.30
2018-02-09T20:01:02.212Z,80.60
2018-02-09T20:03:36.088Z,80.60
2018-02-09T20:06:10.638Z,80.00
2018-02-09T20:08:44.685Z,80.10
2018-02-09T20:11:18.536Z,80.30
2018-02-09T20:13:52.211Z,80.50
2018-02-09T20:16:26.887Z,80.70
2018-02-09T20:19:00.536Z,80.80
2018-02-09T20:21:34.352Z,80.80
2018-02-09T20:24:08.834Z,81.90
2018-02-09T20:26:43.324Z,82.40
2018-02-09T20:29:17.387Z,82.30
2018-02-09T20:31:51.023Z,82.20
2018-02-09T20:34:24.927Z,83.10
2018-02-09T20:36:58.954Z,83.50
2018-02-09T20:39:32.764Z,83.10
2018-02-09T20:42:07.585Z,83.00
2018-02-09T20:44:41.494Z,83.00
2018-02-09T20:47:15.555Z,83.50
2018-02-09T20:49:49.188Z,83.60
2018-02-09T20:52:23.176Z,84.10
2018-02-09T20:54:57.841Z,83.80
2018-02-09T20:57:32.669Z,84.30
2018-02-09T21:00:06.842Z,84.30
2018-02-09T21:02:41.358Z,83.90
2018-02-09T21:05:15.121Z,83.90
2018-02-09T21:07:50.301Z,84.80
2018-02-09T21:10:25.270Z,85.50
2018-02-09T21:13:00.211Z,85.60
2018-02-09T21:15:33.997Z,85.70
2018-02-09T21:18:08.118Z,85.90
2018-02-09T21:20:41.989Z,85.40
2018-02-09T21:23:15.821Z,85.00
2018-02-09T21:25:50.118Z,84.70
2018-02-09T21:28:25.207Z,84.50
2018-02-09T21:30:59.790Z,85.20
2018-02-09T21:33:33.578Z,85.10
2018-02-09T21:36:07.389Z,84.60
2018-02-09T21:38:40.964Z,84.40
2018-02-09T21:41:16.425Z,84.80
2018-02-09T21:43:51.087Z,84.90
2018-02-09T21:46:24.985Z,84.90
2018-02-09T21:48:58.882Z,84.20
2018-02-09T21:51:32.675Z,84.20
2018-02-09T21:54:06.803Z,84.50
2018-02-09T21:56:40.951Z,85.10
2018-02-09T21:59:15.045Z,84.90
2018-02-09T22:01:49.448Z,83.90
2018-02-09T22:04:25.744Z,83.70
2018-02-09T22:07:00.627Z,84.10
2018-02-09T22:09:35.326Z,84.00
2018-02-09T22:12:08.947Z,83.90
2018-02-09T22:14:43.646Z,84.40
2018-02-09T22:17:17.277Z,84.30
2018-02-09T22:19:51.172Z,84.20
2018-02-09T22:22:25.041Z,84.70
2018-02-09T22:24:58.996Z,84.80
2018-02-09T22:27:32.664Z,84.80
2018-02-09T22:30:06.422Z,84.70
2018-02-09T22:32:41.100Z,85.60
2018-02-09T22:35:15.108Z,85.60
2018-02-09T22:37:49.014Z,85.70
2018-02-09T22:40:22.718Z,85.30
2018-02-09T22:42:56.551Z,85.60
2018-02-09T22:45:31.178Z,85.50
2018-02-09T22:48:05.921Z,85.70
2018-02-09T22:50:39.640Z,85.70
2018-02-09T22:53:14.152Z,86.00
2018-02-09T22:55:47.831Z,86.00
2018-02-09T22:58:22.465Z,85.70
2018-02-09T23:00:57.011Z,85.70
2018-02-09T23:03:31.367Z,85.50
2018-02-09T23:06:05.162Z,85.60
2018-02-09T23:08:38.963Z,85.60
2018-02-09T23:11:13.656Z,86.20
2018-02-09T23:13:47.560Z,86.20
2018-02-09T23:16:21.243Z,86.00
2018-02-09T23:18:55.156Z,86.10
2018-02-09T23:21:29.638Z,85.60
2018-02-09T23:24:03.565Z,85.60
2018-02-09T23:26:37.347Z,85.70
2018-02-09T23:29:11.084Z,85.70
2018-02-09T23:31:45.499Z,86.70
2018-02-09T23:34:19.835Z,87.10
2018-02-09T23:36:53.896Z,87.10
2018-02-09T23:39:27.693Z,86.70
2018-02-09T23:42:01.423Z,86.30
2018-02-09T23:44:35.005Z,86.00
2018-02-09T23:47:09.608Z,86.30
2018-02-09T23:49:43.538Z,86.30
2018-02-09T23:52:18.084Z,86.70
2018-02-09T23:54:51.881Z,86.60
2018-02-09T23:57:26.592Z,87.00
